createdAt,value
2019-02-10T00:01:02.031Z,96289.17
2019-02-10T00:03:33.992Z,96292.92
2019-02-10T00:06:05.908Z,96280.25
2019-02-10T00:08:38.021Z,96276.78
2019-02-10T00:11:09.897Z,96278.94
2019-02-10T00:13:42.805Z,96273.73
2019-02-10T00:16:20.162Z,96269.51
2019-02-10T00:18:52.071Z,96267.95
2019-02-10T00:21:24.310Z,96267.80
2019-02-10T00:23:56.088Z,96262.64
2019-02-10T00:26:28.007Z,96254.91
2019-02-10T00:28:59.929Z,96260.31
2019-02-10T00:31:31.843Z,96261.91
2019-02-10T00:34:03.696Z,96261.50
2019-02-10T00:36:35.616Z,96246.49
2019-02-10T00:39:10.709Z,96241.59
2019-02-10T00:41:42.704Z,96234.81
2019-02-10T00:44:14.571Z,96237.76
2019-02-10T00:46:47.462Z,96230.97
2019-02-10T00:49:19.240Z,96232.70
2019-02-10T00:51:51.005Z,96223.77
2019-02-10T00:54:22.791Z,96224.30
2019-02-10T00:56:54.819Z,96214.14
2019-02-10T00:59:26.684Z,96207.97
2019-02-10T01:01:58.594Z,96197.95
2019-02-10T01:04:30.390Z,96203.33
2019-02-10T01:07:03.381Z,96204.63
2019-02-10T01:09:35.231Z,96203.86
2019-02-10T01:12:07.142Z,96198.97
2019-02-10T01:14:39.035Z,96185.74
2019-02-10T01:17:10.915Z,96182.66
2019-02-10T01:19:42.756Z,96176.13
2019-02-10T01:22:14.679Z,96174.80
2019-02-10T01:24:46.637Z,96167.09
2019-02-10T01:27:18.481Z,96164.84
2019-02-10T01:29:50.415Z,96157.64
2019-02-10T01:32:22.325Z,96165.88
2019-02-10T01:34:54.114Z,96168.48
2019-02-10T01:37:26.031Z,96168.77
2019-02-10T01:39:57.886Z,96164.16
2019-02-10T01:42:29.820Z,96153.11
2019-02-10T01:45:01.659Z,96144.80
2019-02-10T01:47:33.817Z,96140.48
2019-02-10T01:50:07.144Z,96138.15
2019-02-10T01:52:40.050Z,96136.18
2019-02-10T01:55:13.603Z,96133.98
2019-02-10T01:57:45.450Z,96135.28
2019-02-10T02:00:17.976Z,96122.27
2019-02-10T02:02:49.911Z,96113.53
2019-02-10T02:05:21.679Z,96096.60
2019-02-10T02:07:53.940Z,96084.95
2019-02-10T02:10:25.859Z,96093.72
2019-02-10T02:12:57.780Z,96095.53
2019-02-10T02:15:29.896Z,96102.10
2019-02-10T02:18:01.879Z,96093.48
2019-02-10T02:20:33.723Z,96090.44
2019-02-10T02:23:06.538Z,96083.03
2019-02-10T02:25:38.466Z,96072.34
2019-02-10T02:28:11.667Z,96068.43
2019-02-10T02:30:43.447Z,96059.26
2019-02-10T02:33:15.609Z,96059.47
2019-02-10T02:35:47.387Z,96057.21
2019-02-10T02:38:19.521Z,96048.33
2019-02-10T02:40:51.374Z,96043.59
2019-02-10T02:43:23.206Z,96042.12
2019-02-10T02:45:55.046Z,96030.56
2019-02-10T02:48:26.892Z,96025.04
2019-02-10T02:51:00.790Z,96024.73
2019-02-10T02:53:32.206Z,96015.91
2019-02-10T02:56:04.058Z,96013.42
2019-02-10T02:58:35.971Z,96016.73
2019-02-10T03:01:07.934Z,96010.14
2019-02-10T03:03:39.773Z,96000.42
2019-02-10T03:06:11.706Z,95998.89
2019-02-10T03:08:43.544Z,95986.40
2019-02-10T03:11:15.461Z,95981.53
2019-02-10T03:13:47.311Z,95969.06
2019-02-10T03:16:19.161Z,95964.25
2019-02-10T03:18:53.211Z,95962.91
2019-02-10T03:21:24.548Z,95949.83
2019-02-10T03:23:56.256Z,95950.45
2019-02-10T03:26:27.981Z,95942.80
2019-02-10T03:28:59.749Z,95957.30
2019-02-10T03:31:31.553Z,95947.36
2019-02-10T03:34:03.312Z,95942.28
2019-02-10T03:36:35.021Z,95932.89
2019-02-10T03:39:07.603Z,95929.60
2019-02-10T03:41:39.630Z,95921.09
2019-02-10T03:44:12.380Z,95921.22
2019-02-10T03:46:44.343Z,95913.88
2019-02-10T03:49:16.335Z,95916.69
2019-02-10T03:51:48.066Z,95909.61
2019-02-10T03:54:19.848Z,95907.27
2019-02-10T03:56:51.706Z,95898.16
2019-02-10T03:59:23.412Z,95885.72
2019-02-10T04:01:55.267Z,95870.90
2019-02-10T04:04:26.994Z,95867.09
2019-02-10T04:06:58.710Z,95860.71
2019-02-10T04:09:30.404Z,95851.00
2019-02-10T04:12:02.613Z,95843.08
2019-02-10T04:14:34.330Z,95833.91
2019-02-10T04:17:06.257Z,95825.59
2019-02-10T04:19:37.975Z,95831.34
2019-02-10T04:22:09.699Z,95829.19
2019-02-10T04:24:41.688Z,95835.08
2019-02-10T04:27:13.481Z,95831.47
2019-02-10T04:29:45.185Z,95829.34
2019-02-10T04:32:17.868Z,95821.11
2019-02-10T04:34:49.564Z,95816.03
2019-02-10T04:37:21.278Z,95815.06
2019-02-10T04:39:52.978Z,95803.75
2019-02-10T04:42:24.699Z,95790.84
2019-02-10T04:44:56.396Z,95783.63
2019-02-10T04:47:28.101Z,95766.81
2019-02-10T04:49:59.807Z,95772.05
2019-02-10T04:52:31.770Z,95762.91
2019-02-10T04:55:03.496Z,95763.02
2019-02-10T04:57:36.259Z,95770.10
2019-02-10T05:00:09.688Z,95762.98
2019-02-10T05:02:41.531Z,95760.30
2019-02-10T05:05:14.204Z,95756.38
2019-02-10T05:07:54.102Z,95752.20
2019-02-10T05:10:21.703Z,95755.44
2019-02-10T05:12:53.036Z,95738.88
2019-02-10T05:15:24.733Z,95723.87
2019-02-10T05:17:56.451Z,95722.02
2019-02-10T05:20:28.148Z,95701.68
2019-02-10T05:22:59.863Z,95698.44
2019-02-10T05:25:31.560Z,95710.87
2019-02-10T05:28:03.352Z,95704.50
2019-02-10T05:30:35.043Z,95706.01
2019-02-10T05:33:07.321Z,95706.50
2019-02-10T05:35:39.014Z,95705.69
2019-02-10T05:38:11.268Z,95704.02
2019-02-10T05:40:43.206Z,95693.92
2019-02-10T05:43:15.157Z,95696.94
2019-02-10T05:45:47.827Z,95703.46
2019-02-10T05:48:19.543Z,95680.08
2019-02-10T05:50:51.253Z,95666.48
2019-02-10T05:53:22.959Z,95653.98
2019-02-10T05:55:54.653Z,95646.05
2019-02-10T05:58:26.356Z,95633.98
2019-02-10T06:01:52.876Z,95630.41
2019-02-10T06:04:24.665Z,95623.88
2019-02-10T06:06:59.711Z,95614.07
2019-02-10T06:09:31.494Z,95613.05
2019-02-10T06:12:04.641Z,95608.52
2019-02-10T06:14:36.571Z,95600.20
2019-02-10T06:17:09.401Z,95578.46
2019-02-10T06:19:41.104Z,95577.55
2019-02-10T06:22:12.929Z,95590.30
2019-02-10T06:24:45.721Z,95595.48
2019-02-10T06:27:18.178Z,95595.28
2019-02-10T06:29:52.606Z,95587.98
2019-02-10T06:32:24.330Z,95584.89
2019-02-10T06:34:56.041Z,95584.02
2019-02-10T06:37:28.127Z,95584.36
2019-02-10T06:40:00.343Z,95574.75
2019-02-10T06:42:32.063Z,95567.06
2019-02-10T06:45:03.783Z,95560.88
2019-02-10T06:47:35.580Z,95558.31
2019-02-10T06:50:08.815Z,95556.97
2019-02-10T06:52:40.637Z,95554.36
2019-02-10T06:55:13.691Z,95552.72
2019-02-10T06:57:45.467Z,95555.96
2019-02-10T07:00:34.677Z,95549.33
2019-02-10T07:04:08.067Z,95547.49
2019-02-10T07:06:39.766Z,95545.56
2019-02-10T07:09:11.642Z,95541.84
2019-02-10T07:11:43.613Z,95529.76
2019-02-10T07:14:28.976Z,95525.39
2019-02-10T07:18:11.233Z,95524.27
2019-02-10T07:20:43.929Z,95528.64
2019-02-10T07:24:44.957Z,95540.91
2019-02-10T07:27:31.000Z,95532.11
2019-02-10T07:30:43.058Z,95535.87
2019-02-10T07:34:03.872Z,95534.89
2019-02-10T07:37:33.781Z,95536.98
2019-02-10T07:41:35.894Z,95531.95
2019-02-10T07:45:20.108Z,95527.24
2019-02-10T07:48:33.956Z,95521.87
2019-02-10T07:51:31.631Z,95515.36
2019-02-10T07:54:42.172Z,95513.42
2019-02-10T07:57:53.221Z,95499.06
2019-02-10T08:00:43.156Z,95489.58
2019-02-10T08:04:07.162Z,95489.26
2019-02-10T08:07:04.695Z,95471.64
2019-02-10T08:10:36.086Z,95466.72
2019-02-10T08:13:33.947Z,95466.72
2019-02-10T08:16:50.061Z,95458.24
2019-02-10T08:20:23.140Z,95437.37
2019-02-10T08:23:43.950Z,95425.27
2019-02-10T08:27:08.585Z,95406.80
2019-02-10T08:30:54.984Z,95395.88
2019-02-10T08:33:33.833Z,95386.06
2019-02-10T08:37:12.238Z,95376.92
2019-02-10T08:40:21.715Z,95374.61
2019-02-10T08:43:20.940Z,95350.13
2019-02-10T08:46:02.804Z,95347.84
2019-02-10T08:49:46.683Z,95328.55
2019-02-10T08:52:57.066Z,95309.94
2019-02-10T08:55:28.711Z,95297.52
2019-02-10T08:58:00.676Z,95295.53
2019-02-10T09:00:32.381Z,95303.19
2019-02-10T09:03:04.379Z,95289.63
2019-02-10T09:05:36.164Z,95284.38
2019-02-10T09:08:07.938Z,95284.56
2019-02-10T09:10:39.656Z,95292.21
2019-02-10T09:13:11.471Z,95284.23
2019-02-10T09:15:43.182Z,95284.69
2019-02-10T09:18:15.027Z,95274.40
2019-02-10T09:20:46.977Z,95271.75
2019-02-10T09:23:18.756Z,95271.91
2019-02-10T09:25:50.490Z,95256.06
2019-02-10T09:28:22.273Z,95259.83
2019-02-10T09:30:53.977Z,95258.35
2019-02-10T09:33:25.928Z,95260.11
2019-02-10T09:35:57.637Z,95245.77
2019-02-10T09:38:29.340Z,95236.74
2019-02-10T09:41:01.111Z,95242.80
2019-02-10T09:43:33.859Z,95232.82
2019-02-10T09:46:05.625Z,95218.56
2019-02-10T09:48:37.327Z,95207.44
2019-02-10T09:51:09.229Z,95198.41
2019-02-10T09:53:40.933Z,95191.38
2019-02-10T09:56:12.774Z,95187.74
2019-02-10T09:58:44.720Z,95185.89
2019-02-10T10:01:16.421Z,95183.42
2019-02-10T10:03:48.199Z,95176.52
2019-02-10T10:06:20.142Z,95171.56
2019-02-10T10:08:51.849Z,95171.55
2019-02-10T10:11:23.793Z,95167.25
2019-02-10T10:13:55.575Z,95168.00
2019-02-10T10:16:27.275Z,95164.72
2019-02-10T10:18:58.978Z,95162.81
2019-02-10T10:21:30.719Z,95148.73
2019-02-10T10:24:02.448Z,95151.77
2019-02-10T10:26:34.471Z,95134.20
2019-02-10T10:29:06.248Z,95133.14
2019-02-10T10:31:38.016Z,95119.67
2019-02-10T10:34:10.073Z,95120.89
2019-02-10T10:36:41.771Z,95116.88
2019-02-10T10:39:13.544Z,95110.91
2019-02-10T10:41:45.533Z,95112.86
2019-02-10T10:44:17.566Z,95094.74
2019-02-10T10:46:49.257Z,95092.73
2019-02-10T10:49:20.973Z,95086.42
2019-02-10T10:51:52.746Z,95084.52
2019-02-10T10:54:24.455Z,95078.27
2019-02-10T10:56:56.238Z,95060.48
2019-02-10T10:59:27.942Z,95047.19
2019-02-10T11:01:59.653Z,95049.45
2019-02-10T11:04:31.374Z,95038.75
2019-02-10T11:07:03.066Z,95032.73
2019-02-10T11:09:35.774Z,95032.66
2019-02-10T11:12:07.552Z,95029.95
2019-02-10T11:14:39.365Z,95025.16
2019-02-10T11:17:11.154Z,95016.95
2019-02-10T11:19:42.952Z,95011.02
2019-02-10T11:22:14.749Z,95016.81
2019-02-10T11:24:46.454Z,95010.17
2019-02-10T11:27:18.162Z,94987.73
2019-02-10T11:29:50.435Z,94994.52
2019-02-10T11:32:22.133Z,94986.96
2019-02-10T11:34:53.858Z,94974.78
2019-02-10T11:37:27.065Z,94967.48
2019-02-10T11:39:58.872Z,94957.89
2019-02-10T11:42:30.580Z,94943.27
2019-02-10T11:45:02.332Z,94943.77
2019-02-10T11:47:34.066Z,94939.15
2019-02-10T11:50:06.846Z,94931.12
2019-02-10T11:52:38.650Z,94917.20
2019-02-10T11:55:10.826Z,94920.12
2019-02-10T11:57:42.680Z,94901.38
2019-02-10T12:00:14.872Z,94895.03
2019-02-10T12:02:46.898Z,94899.31
2019-02-10T12:05:18.679Z,94882.57
2019-02-10T12:07:50.376Z,94875.09
2019-02-10T12:10:22.167Z,94873.59
2019-02-10T12:12:53.876Z,94863.41
2019-02-10T12:15:27.268Z,94838.14
2019-02-10T12:17:59.487Z,94831.56
2019-02-10T12:20:31.563Z,94836.52
2019-02-10T12:23:03.343Z,94821.66
2019-02-10T12:25:36.029Z,94818.52
2019-02-10T12:28:07.809Z,94813.03
2019-02-10T12:30:39.938Z,94801.41
2019-02-10T12:33:11.995Z,94799.06
2019-02-10T12:35:43.725Z,94807.56
2019-02-10T12:38:15.429Z,94791.47
2019-02-10T12:40:48.371Z,94800.47
2019-02-10T12:43:20.375Z,94795.41
2019-02-10T12:45:52.088Z,94796.83
2019-02-10T12:48:23.797Z,94811.30
2019-02-10T12:50:55.850Z,94798.65
2019-02-10T12:53:27.893Z,94809.38
2019-02-10T12:56:00.019Z,94809.67
2019-02-10T12:58:31.739Z,94791.58
2019-02-10T13:01:03.705Z,94787.02
2019-02-10T13:03:35.412Z,94782.77
2019-02-10T13:06:07.194Z,94783.18
2019-02-10T13:08:39.167Z,94786.50
2019-02-10T13:11:11.065Z,94774.66
2019-02-10T13:13:42.940Z,94778.63
2019-02-10T13:16:14.632Z,94780.05
2019-02-10T13:18:46.405Z,94765.98
2019-02-10T13:21:25.324Z,94752.96
2019-02-10T13:23:57.457Z,94762.52
2019-02-10T13:26:29.171Z,94761.89
2019-02-10T13:29:00.888Z,94797.00
2019-02-10T13:31:33.586Z,94791.94
2019-02-10T13:34:07.253Z,94790.78
2019-02-10T13:36:39.219Z,94826.41
2019-02-10T13:39:25.866Z,94795.40
2019-02-10T13:41:55.804Z,94791.27
2019-02-10T13:44:27.547Z,94798.20
2019-02-10T13:46:59.340Z,94812.77
2019-02-10T13:49:31.146Z,94812.36
2019-02-10T13:52:02.873Z,94819.84
2019-02-10T13:54:34.600Z,94814.28
2019-02-10T13:57:06.730Z,94824.77
2019-02-10T13:59:38.500Z,94829.72
2019-02-10T14:02:11.808Z,94833.01
2019-02-10T14:04:43.822Z,94824.55
2019-02-10T14:07:15.787Z,94830.53
2019-02-10T14:09:47.645Z,94829.50
2019-02-10T14:12:19.354Z,94816.67
2019-02-10T14:14:51.079Z,94818.31
2019-02-10T14:17:22.793Z,94792.42
2019-02-10T14:19:54.506Z,94798.62
2019-02-10T14:22:26.228Z,94792.60
2019-02-10T14:24:58.186Z,94793.26
2019-02-10T14:27:29.987Z,94786.67
2019-02-10T14:30:01.936Z,94773.28
2019-02-10T14:32:33.659Z,94777.25
2019-02-10T14:35:06.159Z,94780.59
2019-02-10T14:37:37.872Z,94766.78
2019-02-10T14:40:09.961Z,94775.67
2019-02-10T14:42:41.686Z,94754.67
2019-02-10T14:45:13.593Z,94765.14
2019-02-10T14:47:45.727Z,94756.80
2019-02-10T14:50:17.506Z,94746.73
2019-02-10T14:52:50.274Z,94756.01
2019-02-10T14:55:21.985Z,94756.11
2019-02-10T14:57:53.731Z,94760.83
2019-02-10T15:00:25.497Z,94763.33
2019-02-10T15:02:57.212Z,94760.83
2019-02-10T15:05:28.936Z,94760.89
2019-02-10T15:08:00.698Z,94766.33
2019-02-10T15:10:32.518Z,94769.51
2019-02-10T15:13:04.227Z,94756.84
2019-02-10T15:15:35.945Z,94745.05
2019-02-10T15:18:07.669Z,94745.92
2019-02-10T15:20:39.461Z,94742.61
2019-02-10T15:23:11.190Z,94744.52
2019-02-10T15:25:43.052Z,94735.47
2019-02-10T15:28:14.767Z,94732.88
2019-02-10T15:30:46.524Z,94721.49
2019-02-10T15:33:18.255Z,94712.91
2019-02-10T15:35:49.950Z,94714.62
2019-02-10T15:38:21.666Z,94703.63
2019-02-10T15:40:53.436Z,94700.50
2019-02-10T15:43:25.237Z,94698.28
2019-02-10T15:45:56.937Z,94682.77
2019-02-10T15:48:28.663Z,94685.37
2019-02-10T15:51:00.367Z,94712.02
2019-02-10T15:53:32.097Z,94694.45
2019-02-10T15:56:03.800Z,94678.31
2019-02-10T15:58:35.523Z,94691.26
2019-02-10T16:01:07.475Z,94712.60
2019-02-10T16:03:39.205Z,94705.73
2019-02-10T16:06:10.928Z,94687.64
2019-02-10T16:08:42.634Z,94693.19
2019-02-10T16:11:14.609Z,94708.86
2019-02-10T16:13:46.602Z,94679.75
2019-02-10T16:16:18.379Z,94712.60
2019-02-10T16:18:50.347Z,94797.02
2019-02-10T16:21:22.150Z,94815.77
2019-02-10T16:23:54.131Z,94844.18
2019-02-10T16:26:25.955Z,94856.14
2019-02-10T16:28:57.988Z,94849.56
2019-02-10T16:31:31.331Z,94865.33
2019-02-10T16:34:03.233Z,94874.31
2019-02-10T16:36:35.019Z,94868.91
2019-02-10T16:39:12.065Z,94867.31
2019-02-10T16:41:43.779Z,94883.45
2019-02-10T16:44:15.833Z,94882.59
2019-02-10T16:46:47.548Z,94886.82
2019-02-10T16:49:19.556Z,94885.96
2019-02-10T16:51:51.262Z,94896.73
2019-02-10T16:54:23.057Z,94887.64
2019-02-10T16:56:54.774Z,94891.05
2019-02-10T16:59:26.480Z,94889.88
2019-02-10T17:01:58.203Z,94894.42
2019-02-10T17:04:29.917Z,94892.28
2019-02-10T17:07:01.906Z,94901.89
2019-02-10T17:09:33.671Z,94903.55
2019-02-10T17:12:05.472Z,94919.16
2019-02-10T17:14:37.175Z,94926.80
2019-02-10T17:17:09.606Z,94940.16
2019-02-10T17:19:41.315Z,94953.20
2019-02-10T17:22:13.062Z,94949.45
2019-02-10T17:24:44.779Z,94953.05
2019-02-10T17:27:17.540Z,94956.95
2019-02-10T17:29:49.258Z,94957.67
2019-02-10T17:32:20.988Z,94978.82
2019-02-10T17:34:52.692Z,95001.28
2019-02-10T17:37:24.501Z,94986.98
2019-02-10T17:39:56.222Z,94987.95
2019-02-10T17:42:28.016Z,94984.69
2019-02-10T17:44:59.725Z,94979.19
2019-02-10T17:47:31.882Z,94981.14
2019-02-10T17:50:03.618Z,94982.76
2019-02-10T17:52:35.582Z,94980.16
2019-02-10T17:55:07.425Z,94984.71
2019-02-10T17:57:39.234Z,94973.81
2019-02-10T18:00:12.064Z,94992.85
2019-02-10T18:02:43.799Z,94985.69
2019-02-10T18:05:15.585Z,94995.11
2019-02-10T18:07:47.545Z,94969.27
2019-02-10T18:10:19.334Z,94963.23
2019-02-10T18:12:51.056Z,94962.59
2019-02-10T18:15:40.439Z,94994.45
2019-02-10T18:18:29.521Z,95004.57
2019-02-10T18:21:18.857Z,94994.16
2019-02-10T18:23:57.310Z,95017.26
2019-02-10T18:26:46.415Z,95006.84
2019-02-10T18:29:40.119Z,95021.49
2019-02-10T18:32:29.503Z,95043.29
2019-02-10T18:35:15.273Z,95058.25
2019-02-10T18:38:10.061Z,95071.25
2019-02-10T18:41:04.789Z,95090.15
2019-02-10T18:43:53.988Z,95102.83
2019-02-10T18:46:35.118Z,95099.89
2019-02-10T18:49:25.840Z,95092.55
2019-02-10T18:52:11.626Z,95124.78
2019-02-10T18:55:02.260Z,95139.59
2019-02-10T18:58:05.036Z,95145.13
2019-02-10T19:00:55.320Z,95172.79
2019-02-10T19:03:31.814Z,95153.75
2019-02-10T19:06:14.219Z,95192.47
2019-02-10T19:08:53.861Z,95185.14
2019-02-10T19:11:47.645Z,95202.06
2019-02-10T19:14:44.363Z,95195.38
2019-02-10T19:17:31.199Z,95181.05
2019-02-10T19:20:15.091Z,95174.36
2019-02-10T19:23:04.100Z,95207.27
2019-02-10T19:25:48.340Z,95193.92
2019-02-10T19:28:27.363Z,95258.02
2019-02-10T19:31:30.485Z,95242.75
2019-02-10T19:34:33.009Z,95250.89
2019-02-10T19:37:26.732Z,95248.91
2019-02-10T19:40:13.552Z,95257.10
2019-02-10T19:42:57.695Z,95247.98
2019-02-10T19:45:42.821Z,95254.16
2019-02-10T19:48:34.491Z,95255.09
2019-02-10T19:51:43.193Z,95252.34
2019-02-10T19:54:37.177Z,95256.54
2019-02-10T19:57:34.313Z,95280.20
2019-02-10T20:00:22.245Z,95267.00
2019-02-10T20:03:04.790Z,95276.10
2019-02-10T20:06:10.395Z,95287.72
2019-02-10T20:09:03.826Z,95278.13
2019-02-10T20:12:10.889Z,95281.51
2019-02-10T20:15:07.762Z,95279.57
2019-02-10T20:17:58.397Z,95286.66
2019-02-10T20:20:55.471Z,95277.11
2019-02-10T20:23:52.131Z,95282.62
2019-02-10T20:26:46.514Z,95262.91
2019-02-10T20:29:35.966Z,95254.75
2019-02-10T20:32:26.574Z,95255.42
2019-02-10T20:35:15.805Z,95243.38
2019-02-10T20:38:09.200Z,95252.48
2019-02-10T20:40:45.969Z,95252.73
2019-02-10T20:43:25.292Z,95245.84
2019-02-10T20:46:14.893Z,95256.28
2019-02-10T20:49:12.261Z,95240.05
2019-02-10T20:52:11.865Z,95236.44
2019-02-10T20:54:58.850Z,95245.40
2019-02-10T20:57:36.989Z,95248.13
2019-02-10T21:00:33.317Z,95236.14
2019-02-10T21:03:13.594Z,95236.14
2019-02-10T21:06:03.097Z,95246.98
2019-02-10T21:08:40.843Z,95242.80
2019-02-10T21:11:30.014Z,95248.20
2019-02-10T21:14:23.769Z,95250.33
2019-02-10T21:17:13.139Z,95261.55
2019-02-10T21:20:04.657Z,95266.07
2019-02-10T21:22:51.838Z,95255.95
2019-02-10T21:25:52.822Z,95278.56
2019-02-10T21:28:30.371Z,95274.09
2019-02-10T21:31:24.225Z,95272.73
2019-02-10T21:34:21.904Z,95272.58
2019-02-10T21:37:03.803Z,95270.67
2019-02-10T21:39:52.838Z,95289.98
2019-02-10T21:42:32.654Z,95296.02
2019-02-10T21:45:26.620Z,95274.27
2019-02-10T21:48:06.351Z,95281.40
2019-02-10T21:50:40.065Z,95282.63
2019-02-10T21:53:11.817Z,95271.12
2019-02-10T21:55:43.531Z,95285.42
2019-02-10T21:58:15.280Z,95288.62
2019-02-10T22:00:46.994Z,95292.08
2019-02-10T22:03:19.005Z,95296.98
2019-02-10T22:05:50.741Z,95313.73
2019-02-10T22:08:22.484Z,95313.73
2019-02-10T22:10:54.238Z,95317.05
2019-02-10T22:13:25.946Z,95309.81
2019-02-10T22:15:57.643Z,95319.17
2019-02-10T22:18:29.440Z,95319.52
2019-02-10T22:21:01.232Z,95337.00
2019-02-10T22:23:32.946Z,95338.06
2019-02-10T22:26:04.663Z,95365.34
2019-02-10T22:28:36.362Z,95355.16
2019-02-10T22:31:09.319Z,95365.68
2019-02-10T22:33:41.040Z,95344.61
2019-02-10T22:36:12.832Z,95369.09
2019-02-10T22:38:44.584Z,95354.01
2019-02-10T22:41:16.361Z,95362.52
2019-02-10T22:43:48.153Z,95358.59
2019-02-10T22:46:20.471Z,95358.70
2019-02-10T22:48:52.252Z,95370.77
2019-02-10T22:51:24.105Z,95371.70
2019-02-10T22:53:56.105Z,95365.27
2019-02-10T22:56:27.944Z,95379.34
2019-02-10T22:58:59.653Z,95394.16
2019-02-10T23:01:31.578Z,95394.11
2019-02-10T23:04:03.390Z,95388.57
2019-02-10T23:06:35.083Z,95396.98
2019-02-10T23:09:13.847Z,95378.72
2019-02-10T23:11:46.596Z,95398.52
2019-02-10T23:14:18.370Z,95405.73
2019-02-10T23:16:50.156Z,95386.88
2019-02-10T23:19:21.835Z,95411.20
2019-02-10T23:21:53.543Z,95406.31
2019-02-10T23:24:25.498Z,95408.75
2019-02-10T23:26:57.216Z,95432.62
2019-02-10T23:29:28.916Z,95419.83
2019-02-10T23:32:01.192Z,95424.07
2019-02-10T23:34:32.884Z,95437.24
2019-02-10T23:37:04.687Z,95431.53
2019-02-10T23:39:36.856Z,95445.38
2019-02-10T23:42:10.010Z,95473.54
2019-02-10T23:44:49.024Z,95455.33
2019-02-10T23:47:20.801Z,95458.73
2019-02-10T23:49:52.510Z,95475.38
2019-02-10T23:52:24.226Z,95468.22
2019-02-10T23:54:55.927Z,95483.60
2019-02-10T23:57:27.639Z,95469.14
2019-02-10T23:59:59.348Z,95471.87
